Time;durP1;ratioP1;P1;durP2;ratioP2;P2;SDS_P1;SDS_P2;PMS_P1;PMS_P2;Temp;Humidity;BMP_temperature;BMP_pressure;BME280_temperature;BME280_humidity;BME280_pressure;Samples;Min_cycle;Max_cycle;Signal;HPM_P1;HPM_P2
2023/10/23 00:02:15;;;;;;;5.07;0.70;;;;;;;10.04;100.00;94486.69;4866924;29;20052;-85
2023/10/23 00:07:24;;;;;;;2.88;0.73;;;;;;;10.21;100.00;94485.66;4869190;29;20044;-84
2023/10/23 00:09:49;;;;;;;3.10;0.70;;;;;;;10.23;100.00;94496.63;4883361;29;20458;-84
2023/10/23 00:12:15;;;;;;;7.57;0.60;;;;;;;10.14;100.00;94498.19;4866612;29;20025;-84
2023/10/23 00:14:40;;;;;;;0.70;0.47;;;;;;;10.12;100.00;94498.47;4866666;29;20029;-84
2023/10/23 00:19:50;;;;;;;1.75;0.50;;;;;;;10.18;100.00;94501.84;4876701;29;20051;-85
2023/10/23 00:24:59;;;;;;;1.50;0.45;;;;;;;10.16;100.00;94501.34;4869126;29;20411;-85
2023/10/23 00:30:32;;;;;;;4.80;0.65;;;;;;;10.22;100.00;94496.88;4883112;29;20599;-85
2023/10/23 00:33:16;;;;;;;2.80;0.57;;;;;;;10.03;100.00;94503.41;4866879;29;20458;-85
2023/10/23 00:35:41;;;;;;;3.60;0.73;;;;;;;10.08;100.00;94500.03;4883030;29;20399;-84
2023/10/23 00:38:06;;;;;;;1.95;0.40;;;;;;;9.92;100.00;94499.22;4850834;29;20027;-85
2023/10/23 00:40:32;;;;;;;0.98;0.40;;;;;;;9.95;100.00;94511.78;4866318;29;20359;-85
2023/10/23 00:46:02;;;;;;;1.15;0.40;;;;;;;9.32;100.00;94515.25;4882856;29;20044;-84
2023/10/23 00:48:28;;;;;;;3.38;0.65;;;;;;;9.45;100.00;94514.78;4851111;29;20029;-84
2023/10/23 00:50:58;;;;;;;5.65;0.65;;;;;;;9.45;100.00;94514.78;4866155;29;20032;-84
2023/10/23 00:53:25;;;;;;;4.50;0.68;;;;;;;9.51;100.00;94504.34;4866276;29;20025;-84
2023/10/23 00:55:52;;;;;;;2.00;0.40;;;;;;;9.58;100.00;94512.72;4851211;29;20031;-84
2023/10/23 00:58:18;;;;;;;3.33;0.43;;;;;;;9.67;100.00;94510.41;4866372;29;20466;-84
2023/10/23 01:00:44;;;;;;;2.13;0.38;;;;;;;9.64;100.00;94511.72;4866072;29;20029;-84
2023/10/23 01:03:28;;;;;;;2.53;0.32;;;;;;;9.74;100.00;94506.50;4851013;29;20323;-84
2023/10/23 01:06:31;;;;;;;4.30;0.60;;;;;;;9.73;100.00;94499.69;4851116;29;20025;-85
2023/10/23 01:08:57;;;;;;;6.13;0.70;;;;;;;9.54;100.00;94496.00;4882705;29;20035;-84
2023/10/23 01:11:23;;;;;;;2.08;0.50;;;;;;;9.33;100.00;94501.94;4866108;29;20334;-84
2023/10/23 01:13:48;;;;;;;2.17;0.60;;;;;;;9.49;100.00;94494.13;4866200;29;20032;-84
2023/10/23 01:16:14;;;;;;;3.58;0.60;;;;;;;9.40;100.00;94496.47;4866030;29;20021;-84
2023/10/23 01:19:17;;;;;;;3.10;0.55;;;;;;;9.22;100.00;94489.06;4854473;29;20346;-84
2023/10/23 01:21:42;;;;;;;4.55;0.70;;;;;;;9.15;100.00;94494.53;4886226;29;20025;-84
2023/10/23 01:24:27;;;;;;;2.65;0.50;;;;;;;9.38;100.00;94480.25;4869667;29;20028;-85
2023/10/23 01:26:54;;;;;;;5.95;0.70;;;;;;;9.37;100.00;94480.50;4869711;29;20366;-84
2023/10/23 01:32:23;;;;;;;7.03;1.05;;;;;;;9.23;100.00;94480.97;4886079;29;20047;-84
2023/10/23 01:34:48;;;;;;;5.82;0.80;;;;;;;9.29;100.00;94479.16;4869630;29;20029;-84
2023/10/23 01:37:13;;;;;;;2.50;0.52;;;;;;;9.37;100.00;94491.75;4869709;29;20041;-84
2023/10/23 01:42:30;;;;;;;2.22;0.65;;;;;;;9.38;100.00;94493.31;4871709;29;20044;-84
2023/10/23 01:45:14;;;;;;;3.47;0.60;;;;;;;9.45;100.00;94486.00;4869600;29;20029;-84
2023/10/23 01:47:40;;;;;;;2.92;0.70;;;;;;;9.38;100.00;94488.09;4853937;29;20105;-84
2023/10/23 01:50:06;;;;;;;2.70;0.73;;;;;;;9.35;100.00;94493.84;4869206;29;20029;-84
2023/10/23 01:52:31;;;;;;;3.83;0.57;;;;;;;9.27;100.00;94489.09;4869034;29;20033;-84
2023/10/23 01:54:58;;;;;;;4.80;0.80;;;;;;;9.57;100.00;94495.47;4869152;29;20033;-84
2023/10/23 02:00:10;;;;;;;4.28;0.73;;;;;;;9.53;100.00;94478.72;4871526;29;20485;-85
2023/10/23 02:02:55;;;;;;;2.78;0.75;;;;;;;9.38;100.00;94475.03;4853614;29;20164;-85
2023/10/23 02:05:21;;;;;;;1.70;0.57;;;;;;;9.48;100.00;94479.50;4885566;29;20029;-84
2023/10/23 02:07:46;;;;;;;1.65;0.47;;;;;;;9.36;100.00;94474.50;4868812;29;20039;-85
2023/10/23 02:10:12;;;;;;;3.55;0.40;;;;;;;9.57;100.00;94483.19;4853632;29;20124;-84
2023/10/23 02:15:22;;;;;;;4.97;0.60;;;;;;;9.44;100.00;94487.06;4871278;29;20101;-85
2023/10/23 02:18:06;;;;;;;5.85;0.63;;;;;;;9.52;100.00;94490.22;4884375;29;20025;-85
2023/10/23 02:20:35;;;;;;;1.92;0.63;;;;;;;9.51;100.00;94494.66;4866643;29;20438;-85
2023/10/23 02:23:20;;;;;;;4.10;0.60;;;;;;;9.45;100.00;94495.69;4865055;29;20503;-85
2023/10/23 02:26:05;;;;;;;3.53;0.60;;;;;;;9.41;100.00;94492.81;4901555;29;20036;-85
2023/10/23 02:28:30;;;;;;;1.27;0.60;;;;;;;9.37;100.00;94491.75;4884099;29;20060;-85
2023/10/23 02:30:55;;;;;;;5.95;0.80;;;;;;;9.60;100.00;94492.34;4884790;29;20064;-85
2023/10/23 02:36:24;;;;;;;5.72;0.55;;;;;;;9.79;100.00;94491.88;4903792;29;20126;-85
2023/10/23 02:39:09;;;;;;;4.00;1.10;;;;;;;9.52;100.00;94495.47;4902721;29;20044;-85
2023/10/23 02:41:35;;;;;;;2.92;0.60;;;;;;;9.25;100.00;94489.34;4887215;29;20434;-84
2023/10/23 02:46:44;;;;;;;0.70;0.30;;;;;;;9.45;100.00;94490.47;4903550;29;20040;-85
2023/10/23 02:49:10;;;;;;;7.40;1.50;;;;;;;9.50;100.00;94500.16;4903533;29;20029;-85
2023/10/23 02:51:38;;;;;;;3.85;0.70;;;;;;;9.41;100.00;94500.66;4871431;29;20453;-85
2023/10/23 02:54:22;;;;;;;3.47;0.60;;;;;;;9.73;100.00;94497.06;4886848;29;20024;-85
2023/10/23 02:56:47;;;;;;;3.35;0.90;;;;;;;9.81;100.00;94502.88;4902353;29;20437;-85
2023/10/23 02:59:13;;;;;;;3.15;0.60;;;;;;;9.62;100.00;94498.88;4886439;29;20032;-85
2023/10/23 03:01:38;;;;;;;1.92;0.45;;;;;;;9.56;100.00;94493.91;4886687;29;20036;-85
2023/10/23 03:04:04;;;;;;;2.33;0.68;;;;;;;9.68;100.00;94499.69;4870899;29;20029;-85
2023/10/23 03:06:29;;;;;;;4.60;0.40;;;;;;;9.61;100.00;94499.13;4886630;29;20091;-85
2023/10/23 03:09:14;;;;;;;1.80;0.60;;;;;;;9.61;100.00;94496.53;4902092;29;20036;-85
2023/10/23 03:11:39;;;;;;;3.03;0.63;;;;;;;9.55;100.00;94493.13;4886297;29;20084;-84
2023/10/23 03:14:05;;;;;;;1.63;0.73;;;;;;;9.47;100.00;94496.22;4886330;29;20028;-85
2023/10/23 03:16:30;;;;;;;2.20;0.60;;;;;;;9.54;100.00;94490.75;4917590;29;20025;-84
2023/10/23 03:18:55;;;;;;;4.45;0.40;;;;;;;9.58;100.00;94499.66;4886167;29;20025;-85
2023/10/23 03:21:21;;;;;;;2.17;0.70;;;;;;;9.56;100.00;94496.50;4886083;29;20024;-85
2023/10/23 03:26:31;;;;;;;3.00;0.60;;;;;;;9.39;100.00;94500.13;4888646;29;20131;-85
2023/10/23 03:28:56;;;;;;;2.53;0.50;;;;;;;9.50;100.00;94508.00;4886044;29;20032;-85
2023/10/23 03:31:40;;;;;;;6.18;0.77;;;;;;;9.55;100.00;94505.41;4885925;29;20083;-84
2023/10/23 03:34:06;;;;;;;2.42;0.63;;;;;;;9.55;100.00;94508.81;4917441;29;20386;-85
2023/10/23 03:36:31;;;;;;;3.80;1.17;;;;;;;9.60;100.00;94505.41;4885937;29;20107;-85
2023/10/23 03:38:57;;;;;;;2.05;0.63;;;;;;;9.52;100.00;94511.16;4885887;29;20025;-85
2023/10/23 03:41:22;;;;;;;5.55;0.82;;;;;;;9.77;100.00;94513.06;4885420;29;20111;-85
2023/10/23 03:46:32;;;;;;;2.53;0.60;;;;;;;9.83;100.00;94514.66;4888127;29;20102;-84
2023/10/23 03:48:57;;;;;;;5.07;0.70;;;;;;;9.93;100.00;94513.09;4885869;29;20032;-85
2023/10/23 03:51:22;;;;;;;3.80;0.57;;;;;;;9.96;100.00;94513.34;4885535;29;20099;-85
2023/10/23 03:53:48;;;;;;;2.55;0.77;;;;;;;9.79;100.00;94515.44;4902330;29;20047;-84
2023/10/23 03:56:13;;;;;;;2.17;0.45;;;;;;;9.67;100.00;94505.97;4902233;29;20035;-84
2023/10/23 03:58:39;;;;;;;2.03;0.70;;;;;;;9.75;100.00;94515.94;4885661;29;20044;-85
2023/10/23 04:01:23;;;;;;;5.15;1.17;;;;;;;9.94;100.00;94512.84;4885389;29;20028;-85
2023/10/23 04:06:51;;;;;;;7.18;0.60;;;;;;;9.59;100.00;94504.63;4902078;29;20100;-84
2023/10/23 04:09:35;;;;;;;5.47;1.02;;;;;;;9.75;100.00;94505.47;4885384;29;20115;-84
2023/10/23 04:12:01;;;;;;;7.22;0.95;;;;;;;9.88;100.00;94506.00;4900642;29;20029;-85
2023/10/23 04:14:26;;;;;;;3.72;0.70;;;;;;;9.77;100.00;94499.97;4874099;29;20036;-85
2023/10/23 04:16:52;;;;;;;2.22;0.57;;;;;;;9.93;100.00;94508.66;4885775;29;20024;-85
2023/10/23 04:19:17;;;;;;;2.35;0.70;;;;;;;9.81;100.00;94506.25;4900729;29;20119;-85
2023/10/23 04:21:42;;;;;;;4.53;0.90;;;;;;;9.86;100.00;94508.09;4885052;29;20103;-85
2023/10/23 04:24:27;;;;;;;8.02;0.68;;;;;;;9.81;100.00;94506.25;4885059;29;20395;-85
2023/10/23 04:26:52;;;;;;;3.13;0.70;;;;;;;9.96;100.00;94509.94;4890235;29;20457;-85
2023/10/23 04:29:17;;;;;;;1.35;0.60;;;;;;;10.01;100.00;94515.97;4866496;29;20033;-85
2023/10/23 04:34:27;;;;;;;3.40;0.60;;;;;;;9.95;100.00;94514.41;4869030;29;20484;-85
2023/10/23 04:36:52;;;;;;;1.13;0.70;;;;;;;9.88;100.00;94506.00;4866213;29;20025;-86
2023/10/23 04:39:17;;;;;;;3.13;0.57;;;;;;;9.88;100.00;94506.00;4897135;29;20111;-85
2023/10/23 04:41:43;;;;;;;4.38;0.82;;;;;;;9.75;100.00;94495.00;4897181;29;20025;-85
2023/10/23 04:44:27;;;;;;;3.33;0.70;;;;;;;9.90;100.00;94509.94;4881941;29;20402;-85
2023/10/23 04:46:52;;;;;;;3.50;0.60;;;;;;;9.94;100.00;94514.66;4897274;29;20033;-85
2023/10/23 04:49:36;;;;;;;3.92;0.82;;;;;;;9.68;100.00;94507.53;4882897;29;20025;-85
2023/10/23 04:54:46;;;;;;;5.95;0.50;;;;;;;9.48;100.00;94509.06;4883152;29;20562;-85
2023/10/23 04:57:12;;;;;;;6.53;1.20;;;;;;;9.66;100.00;94520.09;4866221;29;20066;-84
2023/10/23 04:59:37;;;;;;;4.45;0.80;;;;;;;9.57;100.00;94516.41;4850694;29;20160;-85
2023/10/23 05:02:03;;;;;;;2.67;0.70;;;;;;;9.48;100.00;94514.28;4881530;29;20443;-85
2023/10/23 05:04:30;;;;;;;2.03;0.68;;;;;;;9.57;100.00;94522.44;4881529;29;20103;-85
2023/10/23 05:06:56;;;;;;;6.03;0.60;;;;;;;9.57;100.00;94516.41;4880916;29;20120;-85
2023/10/23 05:09:21;;;;;;;2.05;0.60;;;;;;;9.66;100.00;94509.63;4896897;29;20064;-85
2023/10/23 05:17:33;;;;;;;6.35;0.75;;;;;;;9.29;100.00;94510.53;4894894;29;20036;-85
2023/10/23 05:19:59;;;;;;;4.57;0.60;;;;;;;9.19;100.00;94511.28;4897005;29;20435;-84
2023/10/23 05:22:24;;;;;;;3.08;0.60;;;;;;;9.17;100.00;94508.13;4896698;29;20040;-84
2023/10/23 05:24:50;;;;;;;5.07;0.90;;;;;;;9.15;100.00;94520.69;4897310;29;20037;-85
2023/10/23 05:27:37;;;;;;;6.13;0.98;;;;;;;9.25;100.00;94499.78;4873010;29;20522;-85
2023/10/23 05:30:22;;;;;;;4.38;0.73;;;;;;;9.18;100.00;94502.66;4900969;29;20407;-85
2023/10/23 05:32:47;;;;;;;1.88;0.60;;;;;;;9.19;100.00;94490.38;4884827;29;20121;-85
2023/10/23 05:35:13;;;;;;;2.20;0.47;;;;;;;9.12;100.00;94495.06;4882509;29;20461;-85
2023/10/23 05:37:38;;;;;;;3.28;0.80;;;;;;;9.40;100.00;94503.53;4882472;29;20025;-85
2023/10/23 05:40:04;;;;;;;7.15;0.70;;;;;;;9.45;100.00;94496.47;4865940;29;20053;-85
2023/10/23 05:42:31;;;;;;;2.53;0.50;;;;;;;9.48;100.00;94492.56;4865854;29;20029;-85
2023/10/23 05:44:56;;;;;;;3.13;0.50;;;;;;;9.65;100.00;94494.97;4866475;29;20025;-84
2023/10/23 05:47:21;;;;;;;4.65;0.77;;;;;;;9.83;100.00;94500.78;4865673;29;20040;-85
2023/10/23 05:49:47;;;;;;;2.00;0.50;;;;;;;10.02;100.00;94501.84;4850582;29;20036;-86
2023/10/23 05:52:12;;;;;;;5.88;0.73;;;;;;;10.08;100.00;94510.50;4882154;29;20450;-86
2023/10/23 05:54:37;;;;;;;4.78;0.55;;;;;;;10.12;100.00;94521.22;4865678;29;20029;-86
2023/10/23 05:57:03;;;;;;;10.63;0.73;;;;;;;10.11;100.00;94524.91;4859147;29;20032;-85
2023/10/23 05:59:28;;;;;;;3.70;0.70;;;;;;;10.22;100.00;94533.53;4884159;29;20331;-86
2023/10/23 06:01:54;;;;;;;5.68;0.60;;;;;;;10.22;100.00;94523.88;4884117;29;20028;-86
2023/10/23 06:04:19;;;;;;;2.95;0.80;;;;;;;10.39;100.00;94534.06;4871944;29;20033;-86
2023/10/23 06:09:29;;;;;;;5.40;0.65;;;;;;;10.48;100.00;94531.78;4890081;29;20055;-86
2023/10/23 06:14:38;;;;;;;2.90;0.40;;;;;;;10.79;100.00;94544.06;4889957;29;20092;-86
2023/10/23 06:17:23;;;;;;;3.33;0.70;;;;;;;11.20;100.00;94540.59;4904082;29;20418;-86
2023/10/23 06:19:48;;;;;;;3.50;0.70;;;;;;;11.31;100.00;94539.50;4887303;29;20028;-86
2023/10/23 06:22:13;;;;;;;5.15;0.70;;;;;;;11.50;100.00;94557.31;4904483;29;20465;-86
2023/10/23 06:24:39;;;;;;;1.80;0.85;;;;;;;11.62;100.00;94563.03;4903941;29;20123;-86
2023/10/23 06:27:04;;;;;;;2.58;0.80;;;;;;;11.43;100.00;94568.06;4902905;29;20028;-86
2023/10/23 06:29:30;;;;;;;2.60;0.73;;;;;;;11.21;100.00;94568.41;4887385;29;20032;-86
2023/10/23 06:31:56;;;;;;;5.25;0.80;;;;;;;11.38;100.00;94579.38;4902772;29;20040;-86
2023/10/23 06:34:22;;;;;;;2.03;0.70;;;;;;;11.41;100.00;94575.44;4887163;29;20340;-86
2023/10/23 06:37:07;;;;;;;2.47;0.82;;;;;;;11.31;100.00;94576.22;4887041;29;20029;-86
2023/10/23 06:39:51;;;;;;;3.55;0.60;;;;;;;11.55;100.00;94570.41;4918439;29;20029;-86
2023/10/23 06:42:16;;;;;;;3.88;1.13;;;;;;;11.81;100.00;94562.41;4903549;29;20025;-85
2023/10/23 06:44:41;;;;;;;4.35;0.82;;;;;;;12.40;100.00;94563.41;4886951;29;20024;-85
2023/10/23 06:47:26;;;;;;;3.80;0.90;;;;;;;12.52;100.00;94570.97;4903518;29;20141;-85
2023/10/23 06:49:52;;;;;;;3.63;0.82;;;;;;;12.56;100.00;94577.25;4871385;29;20032;-85
2023/10/23 06:52:17;;;;;;;3.15;0.70;;;;;;;12.72;100.00;94577.91;4903412;29;20060;-85
2023/10/23 06:55:02;;;;;;;3.47;0.80;;;;;;;12.53;100.00;94584.88;4886680;29;20028;-85
2023/10/23 06:57:28;;;;;;;3.30;0.90;;;;;;;12.84;100.00;94593.31;4886489;29;20446;-85
2023/10/23 07:00:12;;;;;;;2.65;0.80;;;;;;;12.96;100.00;94586.94;4871160;29;20211;-85
2023/10/23 07:02:37;;;;;;;4.85;0.73;;;;;;;13.21;100.00;94588.53;4902234;29;20089;-86
2023/10/23 07:10:32;;;;;;;2.60;1.00;;;;;;;13.13;100.00;94613.59;4902940;29;20035;-85
2023/10/23 07:12:58;;;;;;;4.10;1.00;;;;;;;13.00;100.00;94608.97;4886216;29;20472;-85
2023/10/23 07:15:23;;;;;;;8.00;1.15;;;;;;;12.69;100.00;94604.72;4885491;29;20116;-86
2023/10/23 07:17:49;;;;;;;3.80;1.00;;;;;;;13.19;100.00;94616.97;4885961;29;20031;-85
2023/10/23 07:20:17;;;;;;;11.30;1.52;;;;;;;13.14;100.00;94611.75;4886011;29;20028;-86
2023/10/23 07:22:43;;;;;;;4.32;0.70;;;;;;;12.92;100.00;94610.34;4885911;29;20025;-88
2023/10/23 07:25:09;;;;;;;4.63;0.73;;;;;;;13.25;100.00;94617.72;4901790;29;20028;-87
2023/10/23 07:27:36;;;;;;;2.53;0.68;;;;;;;13.40;100.00;94625.47;4887942;29;20056;-86
2023/10/23 07:30:04;;;;;;;3.60;0.57;;;;;;;13.65;100.00;94609.69;4887290;29;20036;-86
2023/10/23 07:33:07;;;;;;;5.43;0.80;;;;;;;13.91;100.00;94622.59;4886353;29;20036;-88
2023/10/23 07:35:32;;;;;;;3.05;0.82;;;;;;;14.10;100.00;94625.25;4886203;29;20036;-86
2023/10/23 07:40:43;;;;;;;5.15;1.02;;;;;;;14.13;100.00;94620.22;4883680;29;20460;-85
2023/10/23 07:43:08;;;;;;;5.53;1.33;;;;;;;13.84;100.00;94626.34;4867192;29;20032;-85
2023/10/23 07:45:38;;;;;;;3.38;0.68;;;;;;;13.93;100.00;94634.41;4883956;29;20048;-86
2023/10/23 07:48:04;;;;;;;5.05;0.75;;;;;;;13.71;100.00;94634.94;4867556;29;20457;-86
2023/10/23 07:50:32;;;;;;;5.85;0.90;;;;;;;13.26;100.00;94641.09;4866949;29;20033;-86
2023/10/23 07:52:57;;;;;;;6.30;0.80;;;;;;;13.50;100.00;94652.78;4866710;29;20032;-86
2023/10/23 07:55:22;;;;;;;3.97;0.68;;;;;;;13.55;100.00;94647.44;4851725;29;20035;-86
2023/10/23 07:57:48;;;;;;;5.05;1.17;;;;;;;13.73;100.00;94648.59;4851699;29;20025;-86
2023/10/23 08:00:32;;;;;;;7.03;0.60;;;;;;;13.84;100.00;94651.91;4890527;29;20036;-86
2023/10/23 08:02:57;;;;;;;4.03;0.55;;;;;;;13.75;100.00;94646.47;4901892;29;20036;-86
2023/10/23 08:05:41;;;;;;;2.83;0.70;;;;;;;13.88;100.00;94638.97;4901940;29;20032;-86
2023/10/23 08:08:06;;;;;;;3.92;1.02;;;;;;;13.80;100.00;94635.09;4885502;29;20051;-86
2023/10/23 08:10:32;;;;;;;3.85;1.05;;;;;;;14.03;100.00;94641.41;4885347;29;20029;-86
2023/10/23 08:12:57;;;;;;;3.80;0.95;;;;;;;14.06;100.00;94643.47;4901838;29;20036;-85
2023/10/23 08:15:23;;;;;;;1.90;0.88;;;;;;;13.84;100.00;94646.63;4901970;29;20075;-86
2023/10/23 08:17:50;;;;;;;2.50;0.68;;;;;;;14.16;100.00;94633.88;4901978;29;20029;-86
2023/10/23 08:20:37;;;;;;;5.13;1.00;;;;;;;14.27;100.00;94633.47;4901988;29;20040;-86
2023/10/23 08:23:02;;;;;;;4.80;0.70;;;;;;;14.31;100.00;94625.78;4885052;29;20033;-86
2023/10/23 08:25:28;;;;;;;1.83;0.50;;;;;;;14.23;100.00;94629.84;4884962;29;20037;-86
2023/10/23 08:27:53;;;;;;;7.53;1.10;;;;;;;14.28;100.00;94637.66;4884380;29;20399;-86
2023/10/23 08:30:19;;;;;;;5.28;1.17;;;;;;;14.47;100.00;94628.19;4885261;29;20041;-86
2023/10/23 08:32:44;;;;;;;4.20;0.70;;;;;;;14.34;100.00;94637.59;4885146;29;20065;-86
2023/10/23 08:35:09;;;;;;;4.55;0.70;;;;;;;14.39;100.00;94640.94;4884445;29;20433;-86
2023/10/23 08:37:54;;;;;;;2.55;0.70;;;;;;;14.48;100.00;94638.44;4869763;29;20418;-86
2023/10/23 08:40:38;;;;;;;3.03;0.50;;;;;;;14.55;100.00;94632.81;4901679;29;20029;-86
2023/10/23 08:43:05;;;;;;;6.38;0.98;;;;;;;14.57;100.00;94623.56;4901883;29;20072;-86
2023/10/23 08:45:30;;;;;;;5.32;0.75;;;;;;;14.68;100.00;94620.78;4885050;29;20047;-86
2023/10/23 08:47:57;;;;;;;3.17;0.70;;;;;;;14.92;100.00;94612.00;4884795;29;20438;-86
2023/10/23 08:50:23;;;;;;;4.15;0.60;;;;;;;14.98;100.00;94608.97;4884966;29;20032;-86
2023/10/23 08:52:59;;;;;;;2.42;0.60;;;;;;;15.31;100.00;94613.47;4869164;29;20037;-86
2023/10/23 08:55:28;;;;;;;8.15;0.85;;;;;;;15.45;100.00;94610.06;4869227;29;20466;-86
2023/10/23 08:57:54;;;;;;;4.07;0.70;;;;;;;15.56;100.00;94603.53;4884818;29;20032;-86
2023/10/23 09:00:38;;;;;;;4.07;1.42;;;;;;;15.74;100.00;94612.44;4884868;29;20048;-86
2023/10/23 09:03:05;;;;;;;3.67;0.70;;;;;;;15.74;100.00;94611.66;4901425;29;20438;-86
2023/10/23 09:05:30;;;;;;;2.78;0.70;;;;;;;15.90;100.00;94617.44;4901433;29;20047;-86
2023/10/23 09:07:56;;;;;;;2.30;0.70;;;;;;;15.95;100.00;94614.69;4884880;29;20450;-86
2023/10/23 09:10:21;;;;;;;2.42;0.60;;;;;;;15.80;100.00;94623.69;4884681;29;20028;-86
2023/10/23 09:12:54;;;;;;;3.10;0.73;;;;;;;15.84;100.00;94624.66;4884827;29;20071;-86
2023/10/23 09:15:21;;;;;;;5.85;0.80;;;;;;;15.88;100.00;94622.22;4901329;29;20033;-86
2023/10/23 09:17:49;;;;;;;8.13;0.80;;;;;;;16.08;100.00;94619.19;4901331;29;20108;-86
2023/10/23 09:20:33;;;;;;;1.80;0.65;;;;;;;16.16;100.00;94617.72;4883037;29;20029;-86
2023/10/23 09:25:43;;;;;;;2.33;0.60;;;;;;;16.13;100.00;94625.44;4873199;29;20135;-86
2023/10/23 09:28:12;;;;;;;6.03;0.70;;;;;;;16.22;100.00;94635.06;4884400;29;20119;-86
2023/10/23 09:30:38;;;;;;;5.47;0.80;;;;;;;16.08;100.00;94637.69;4901058;29;20338;-85
2023/10/23 09:33:05;;;;;;;6.90;1.10;;;;;;;16.09;100.00;94631.31;4900127;29;20123;-86
2023/10/23 09:35:31;;;;;;;4.75;0.68;;;;;;;16.29;100.00;94628.56;4884453;29;20461;-85
2023/10/23 09:38:34;;;;;;;5.63;0.68;;;;;;;16.48;100.00;94626.56;4885767;29;20063;-86
2023/10/23 09:41:00;;;;;;;2.53;0.70;;;;;;;16.39;100.00;94631.00;4919369;29;20067;-85
2023/10/23 09:46:11;;;;;;;2.35;0.73;;;;;;;16.78;100.00;94621.66;4904508;29;20071;-86
2023/10/23 09:48:39;;;;;;;3.75;0.80;;;;;;;16.84;100.00;94616.25;4888065;29;20132;-86
2023/10/23 09:51:05;;;;;;;3.10;0.88;;;;;;;16.82;100.00;94625.28;4887567;29;20063;-86
2023/10/23 09:53:31;;;;;;;4.22;0.70;;;;;;;16.84;100.00;94629.50;4887800;29;20033;-86
2023/10/23 09:55:58;;;;;;;2.58;0.80;;;;;;;16.65;100.00;94625.91;4903458;29;20131;-86
2023/10/23 09:58:25;;;;;;;5.25;0.77;;;;;;;16.80;100.00;94627.44;4872293;29;20037;-86
2023/10/23 10:00:52;;;;;;;7.10;0.77;;;;;;;17.24;100.00;94629.63;4872831;29;20048;-86
2023/10/23 10:03:20;;;;;;;5.55;0.98;;;;;;;17.30;100.00;94628.41;4887692;29;20153;-86
2023/10/23 10:06:14;;;;;;;4.78;0.70;;;;;;;17.33;100.00;94641.03;4887724;29;20037;-86
2023/10/23 10:08:42;;;;;;;4.65;0.90;;;;;;;17.26;100.00;94630.09;4904318;29;20060;-86
2023/10/23 10:11:07;;;;;;;2.67;0.60;;;;;;;16.84;100.00;94630.25;4887775;29;20031;-86
2023/10/23 10:13:35;;;;;;;5.03;0.80;;;;;;;17.15;100.00;94621.63;4887499;29;20029;-86
2023/10/23 10:16:01;;;;;;;3.97;0.77;;;;;;;17.47;100.00;94621.63;4887440;29;20361;-86
2023/10/23 10:18:45;;;;;;;5.97;0.70;;;;;;;17.78;100.00;94626.91;4887375;29;20029;-86
2023/10/23 10:21:29;;;;;;;1.42;0.70;;;;;;;17.82;97.11;94632.38;4887160;29;20040;-87
2023/10/23 10:23:58;;;;;;;2.17;0.90;;;;;;;17.60;100.00;94623.41;4887858;29;20379;-86
2023/10/23 10:26:24;;;;;;;1.50;0.50;;;;;;;17.57;97.15;94618.72;4887266;29;20054;-86
2023/10/23 10:28:53;;;;;;;3.15;0.75;;;;;;;17.49;100.00;94609.66;4887533;29;20115;-87
2023/10/23 10:31:18;;;;;;;3.83;0.70;;;;;;;17.60;100.00;94609.38;4886347;29;20116;-86
2023/10/23 10:33:43;;;;;;;3.88;1.00;;;;;;;17.84;100.00;94611.66;4887093;29;20052;-86
2023/10/23 10:36:11;;;;;;;3.58;0.60;;;;;;;17.78;100.00;94605.72;4887082;29;20032;-86
2023/10/23 10:38:36;;;;;;;6.43;0.80;;;;;;;17.94;98.63;94613.25;4887042;29;20039;-86
2023/10/23 10:41:21;;;;;;;3.13;0.70;;;;;;;17.83;100.00;94604.00;4886862;29;20058;-86
2023/10/23 10:43:51;;;;;;;5.50;0.80;;;;;;;17.87;100.00;94602.31;4903564;29;20469;-86
2023/10/23 10:46:38;;;;;;;2.75;0.60;;;;;;;17.91;100.00;94609.31;4905329;29;20119;-86
2023/10/23 10:49:22;;;;;;;3.88;0.60;;;;;;;17.40;100.00;94611.47;4898241;29;20116;-85
2023/10/23 10:51:48;;;;;;;7.53;0.80;;;;;;;17.50;100.00;94605.13;4898847;29;20041;-86
2023/10/23 10:54:13;;;;;;;3.70;0.70;;;;;;;17.73;100.00;94611.16;4899243;29;20104;-86
2023/10/23 10:56:38;;;;;;;2.58;0.70;;;;;;;17.78;100.00;94611.00;4883716;29;20067;-86
2023/10/23 10:59:05;;;;;;;2.00;0.75;;;;;;;18.35;100.00;94611.31;4899016;29;20037;-86
2023/10/23 11:01:30;;;;;;;3.08;0.95;;;;;;;18.22;97.41;94603.19;4913292;29;20036;-86
2023/10/23 11:04:19;;;;;;;5.38;1.10;;;;;;;18.91;96.43;94600.06;4854757;29;20034;-86
2023/10/23 11:06:44;;;;;;;4.15;1.30;;;;;;;19.40;91.26;94597.19;4882197;29;20041;-86
2023/10/23 11:12:12;;;;;;;5.97;0.80;;;;;;;20.03;85.33;94599.28;4896446;29;20036;-86
2023/10/23 11:14:38;;;;;;;4.57;1.08;;;;;;;19.97;84.65;94589.94;4883985;29;20033;-86
2023/10/23 11:17:05;;;;;;;5.20;0.93;;;;;;;19.58;92.39;94594.44;4898395;29;20029;-86
2023/10/23 11:22:16;;;;;;;5.28;0.80;;;;;;;19.42;94.70;94580.94;4896298;29;20084;-86
2023/10/23 11:24:42;;;;;;;3.10;0.90;;;;;;;19.18;100.00;94577.72;4898137;29;20025;-86
2023/10/23 11:27:07;;;;;;;3.17;0.82;;;;;;;19.57;96.53;94579.59;4879459;29;20033;-86
2023/10/23 11:29:43;;;;;;;4.15;1.08;;;;;;;19.42;99.02;94583.59;4881941;29;20319;-86
2023/10/23 11:32:11;;;;;;;5.40;0.95;;;;;;;19.78;93.42;94577.00;4898231;29;20048;-86
2023/10/23 11:34:55;;;;;;;6.18;0.82;;;;;;;19.34;98.35;94580.63;4898353;29;20033;-85
2023/10/23 11:37:40;;;;;;;3.42;0.82;;;;;;;19.89;93.37;94577.44;4884086;29;20072;-86
2023/10/23 11:40:07;;;;;;;3.03;0.77;;;;;;;19.74;95.33;94584.88;4882801;29;20057;-86
2023/10/23 11:42:45;;;;;;;4.22;0.90;;;;;;;20.22;87.62;94581.31;4882909;29;20040;-86
2023/10/23 11:45:29;;;;;;;4.82;0.90;;;;;;;19.14;95.88;94568.03;4883947;29;20040;-86
2023/10/23 11:47:55;;;;;;;5.20;1.10;;;;;;;20.07;97.81;94562.19;4898044;29;20051;-86
2023/10/23 11:50:21;;;;;;;4.47;0.90;;;;;;;19.35;100.00;94568.13;4882579;29;20032;-87
2023/10/23 11:52:47;;;;;;;3.50;0.80;;;;;;;20.14;93.86;94569.66;4867090;29;20097;-86
2023/10/23 11:55:17;;;;;;;1.55;0.77;;;;;;;20.52;87.99;94565.31;4898204;29;20457;-86
2023/10/23 12:00:35;;;;;;;6.85;1.20;;;;;;;20.92;85.66;94564.06;4883560;29;20044;-86
2023/10/23 12:03:00;;;;;;;1.48;0.70;;;;;;;20.62;83.42;94557.72;4881968;29;20041;-85
2023/10/23 12:05:26;;;;;;;6.10;0.98;;;;;;;21.04;84.17;94538.22;4883398;29;20457;-87
2023/10/23 12:08:12;;;;;;;3.67;1.00;;;;;;;20.88;82.51;94535.44;4883568;29;20037;-86
2023/10/23 12:16:09;;;;;;;7.53;2.40;;;;;;;20.11;97.05;94530.41;4868111;29;20089;-86
2023/10/23 12:18:35;;;;;;;119.45;66.57;;;;;;;20.47;96.28;94539.69;4867129;29;20033;-86
2023/10/23 12:21:00;;;;;;;9.30;4.07;;;;;;;20.40;95.30;94520.78;4866179;29;20097;-87
2023/10/23 12:23:26;;;;;;;33.80;14.35;;;;;;;19.64;98.76;94519.53;4882040;29;20036;-86
2023/10/23 12:25:51;;;;;;;29.33;13.82;;;;;;;19.61;100.00;94530.06;4897039;29;20033;-86
2023/10/23 12:31:04;;;;;;;18.40;6.18;;;;;;;18.84;100.00;94528.88;4892801;29;20047;-86
2023/10/23 12:33:48;;;;;;;6.95;2.58;;;;;;;18.28;100.00;94537.50;4882763;29;20089;-87
2023/10/23 12:36:14;;;;;;;7.88;3.83;;;;;;;18.09;100.00;94538.59;4878232;29;20021;-86
2023/10/23 12:38:39;;;;;;;10.35;2.63;;;;;;;18.20;100.00;94540.94;4866198;29;20031;-86
2023/10/23 12:41:05;;;;;;;8.75;2.80;;;;;;;18.66;100.00;94530.81;4866250;29;20055;-86
2023/10/23 12:43:30;;;;;;;5.40;0.98;;;;;;;18.92;100.00;94525.44;4895055;29;20426;-85
2023/10/23 12:45:56;;;;;;;5.85;1.80;;;;;;;18.59;100.00;94525.19;4897482;29;20036;-86
2023/10/23 12:48:21;;;;;;;6.07;1.63;;;;;;;18.89;100.00;94533.25;4881834;29;20037;-86
2023/10/23 12:50:47;;;;;;;6.13;1.23;;;;;;;18.97;100.00;94521.03;4891607;29;20033;-86
2023/10/23 12:53:31;;;;;;;4.50;1.38;;;;;;;19.15;100.00;94525.25;4878555;29;20034;-86
2023/10/23 12:55:56;;;;;;;6.80;1.50;;;;;;;18.68;100.00;94525.16;4875873;29;20423;-85
2023/10/23 12:58:41;;;;;;;7.05;1.30;;;;;;;19.43;100.00;94532.78;4866004;29;20044;-86
2023/10/23 13:01:07;;;;;;;5.55;1.25;;;;;;;18.36;100.00;94514.72;4876713;29;20029;-85
2023/10/23 13:03:32;;;;;;;9.30;1.30;;;;;;;18.66;100.00;94514.88;4866130;29;20116;-86
2023/10/23 13:06:16;;;;;;;14.88;2.58;;;;;;;18.85;100.00;94511.84;4866119;29;20060;-85
2023/10/23 13:09:00;;;;;;;9.75;2.08;;;;;;;18.50;100.00;94506.63;4866122;29;20041;-85